Time;durP1;ratioP1;P1;durP2;ratioP2;P2;SDS_P1;SDS_P2;PMS_P1;PMS_P2;Temp;Humidity;BMP_temperature;BMP_pressure;BME280_temperature;BME280_humidity;BME280_pressure;Samples;Min_cycle;Max_cycle;Signal;HPM_P1;HPM_P2
2022/03/22 00:01:50;;;;;;;7.65;2.15;;;29.50;95.00;;;;;;5069266;28;20032;-76
2022/03/22 00:04:18;;;;;;;6.88;1.88;;;29.60;94.20;;;;;;5065601;28;20031;-76
2022/03/22 00:06:45;;;;;;;6.97;1.50;;;29.60;94.40;;;;;;5056619;28;20043;-71
2022/03/22 00:09:13;;;;;;;5.65;1.50;;;29.60;94.10;;;;;;5060634;28;20028;-78
2022/03/22 00:11:40;;;;;;;4.95;1.33;;;29.60;93.80;;;;;;5059728;28;20029;-75
2022/03/22 00:14:09;;;;;;;4.40;1.80;;;29.60;94.70;;;;;;5053434;28;20031;-73
2022/03/22 00:16:37;;;;;;;5.45;1.65;;;29.40;94.40;;;;;;5051506;28;20117;-74
2022/03/22 00:19:05;;;;;;;3.05;2.00;;;29.60;94.20;;;;;;5057002;28;20028;-71
2022/03/22 00:21:35;;;;;;;2.88;2.08;;;30.00;93.70;;;;;;5053565;28;20036;-72
2022/03/22 00:24:03;;;;;;;1.88;1.13;;;30.30;93.90;;;;;;5061828;28;20062;-79
2022/03/22 00:26:30;;;;;;;3.03;1.30;;;30.40;93.50;;;;;;5052292;28;20085;-75
2022/03/22 00:28:59;;;;;;;3.25;0.90;;;30.90;93.80;;;;;;5052643;28;20041;-73
2022/03/22 00:31:27;;;;;;;3.60;1.05;;;31.10;92.80;;;;;;5055321;28;20119;-78
2022/03/22 00:33:54;;;;;;;4.10;1.65;;;31.10;92.50;;;;;;5050828;28;20029;-75
2022/03/22 00:36:22;;;;;;;2.35;1.20;;;31.40;92.00;;;;;;5052552;28;20024;-75
2022/03/22 00:38:50;;;;;;;4.10;0.90;;;31.30;92.30;;;;;;5049486;28;20032;-78
2022/03/22 00:41:18;;;;;;;5.20;1.00;;;31.30;91.80;;;;;;5053287;28;20111;-75
2022/03/22 00:43:46;;;;;;;1.98;0.80;;;31.40;93.60;;;;;;5052716;28;20061;-74
2022/03/22 00:46:13;;;;;;;6.05;1.38;;;31.00;92.70;;;;;;5050978;28;20025;-75
2022/03/22 00:48:42;;;;;;;4.95;1.17;;;30.70;92.00;;;;;;5050485;28;20032;-76
2022/03/22 00:51:09;;;;;;;2.92;1.20;;;30.90;93.00;;;;;;5052553;28;20051;-75
2022/03/22 00:53:39;;;;;;;1.83;0.85;;;31.00;91.80;;;;;;5052649;28;20040;-76
2022/03/22 00:56:07;;;;;;;3.95;1.27;;;31.20;92.20;;;;;;5052004;28;20025;-77
2022/03/22 00:58:36;;;;;;;4.45;1.25;;;31.30;91.80;;;;;;5052768;28;20021;-78
2022/03/22 01:01:03;;;;;;;7.15;1.23;;;31.70;92.30;;;;;;5049054;28;20116;-77
2022/03/22 01:03:31;;;;;;;3.72;0.88;;;31.70;91.50;;;;;;5053226;28;20119;-78
2022/03/22 01:05:59;;;;;;;3.63;1.40;;;31.70;91.70;;;;;;5056829;28;20510;-77
2022/03/22 01:08:29;;;;;;;2.65;1.08;;;31.90;91.10;;;;;;5050197;28;20060;-77
2022/03/22 01:10:56;;;;;;;5.18;1.45;;;31.60;92.10;;;;;;5049365;28;20052;-77
2022/03/22 01:13:27;;;;;;;6.88;1.17;;;31.80;92.20;;;;;;5050349;28;20021;-71
2022/03/22 01:15:54;;;;;;;2.75;1.65;;;32.20;92.10;;;;;;5049783;28;20017;-75
2022/03/22 01:18:25;;;;;;;1.70;1.40;;;32.70;91.80;;;;;;5052699;28;20028;-78
2022/03/22 01:20:52;;;;;;;4.60;1.10;;;32.30;90.60;;;;;;5055179;28;20035;-77
2022/03/22 01:23:20;;;;;;;1.73;1.10;;;32.20;91.30;;;;;;5050884;28;20132;-76
2022/03/22 01:25:48;;;;;;;2.05;1.05;;;32.50;91.20;;;;;;5051785;28;20023;-77
2022/03/22 01:28:16;;;;;;;4.28;1.52;;;32.50;91.10;;;;;;5052421;28;20048;-78
2022/03/22 01:30:45;;;;;;;3.40;1.73;;;32.60;91.70;;;;;;5052666;28;20877;-75
2022/03/22 01:33:13;;;;;;;3.15;1.00;;;32.00;91.00;;;;;;5052530;28;20025;-76
2022/03/22 01:35:41;;;;;;;3.40;1.63;;;31.60;91.40;;;;;;5053122;28;20021;-77
2022/03/22 01:38:09;;;;;;;3.22;1.52;;;31.80;91.00;;;;;;5047841;28;21723;-77
2022/03/22 01:40:37;;;;;;;3.47;1.23;;;31.80;92.00;;;;;;5051354;28;20513;-79
2022/03/22 01:43:06;;;;;;;1.83;1.02;;;32.10;91.90;;;;;;5050292;28;20056;-77
2022/03/22 01:45:34;;;;;;;3.08;1.30;;;32.20;91.20;;;;;;5049499;28;20052;-76
2022/03/22 01:48:04;;;;;;;2.60;1.10;;;32.50;91.30;;;;;;5053246;28;20037;-77
2022/03/22 01:50:31;;;;;;;6.75;1.50;;;32.30;91.00;;;;;;5050401;28;20029;-77
2022/03/22 01:53:00;;;;;;;4.40;1.20;;;32.40;91.20;;;;;;5048334;28;20021;-74
2022/03/22 01:55:27;;;;;;;1.90;1.40;;;32.50;91.10;;;;;;5048148;28;20078;-75
2022/03/22 01:57:55;;;;;;;2.03;1.25;;;32.80;89.40;;;;;;5050123;28;20035;-72
2022/03/22 02:00:23;;;;;;;3.95;1.63;;;32.60;90.50;;;;;;5048307;28;20029;-74
2022/03/22 02:08:18;;;;;;;6.38;2.20;;;32.30;89.70;;;;;;5054402;28;20031;-72
2022/03/22 02:10:46;;;;;;;4.43;1.35;;;32.60;90.10;;;;;;5053293;28;20554;-74
2022/03/22 02:13:14;;;;;;;2.42;1.15;;;32.70;89.80;;;;;;5056683;28;20028;-76
2022/03/22 02:15:43;;;;;;;3.17;1.27;;;33.00;90.00;;;;;;5065766;28;20107;-74
2022/03/22 02:18:10;;;;;;;5.60;1.60;;;33.30;89.10;;;;;;5059046;28;20032;-75
2022/03/22 02:20:38;;;;;;;3.88;1.70;;;33.40;87.70;;;;;;5055642;28;20620;-75
2022/03/22 02:23:15;;;;;;;3.67;1.67;;;33.60;87.00;;;;;;5055300;28;20025;-75
2022/03/22 02:25:42;;;;;;;2.28;1.48;;;33.30;87.40;;;;;;5053102;28;20091;-72
2022/03/22 02:28:12;;;;;;;3.75;1.05;;;33.20;87.90;;;;;;5055973;28;20490;-74
2022/03/22 02:30:39;;;;;;;4.55;1.77;;;33.00;88.30;;;;;;5053869;28;20025;-74
2022/03/22 02:33:06;;;;;;;2.08;1.40;;;33.30;88.30;;;;;;5052811;28;20039;-75
2022/03/22 02:35:34;;;;;;;3.85;0.95;;;33.20;88.00;;;;;;5055543;28;20024;-78
2022/03/22 02:38:03;;;;;;;2.28;1.05;;;33.50;87.70;;;;;;5056335;28;20096;-76
2022/03/22 02:40:30;;;;;;;1.83;1.20;;;33.80;86.60;;;;;;5056089;28;20021;-77
2022/03/22 02:43:01;;;;;;;7.72;1.75;;;33.30;86.30;;;;;;5053623;28;20102;-75
2022/03/22 02:45:29;;;;;;;2.17;1.50;;;33.10;86.40;;;;;;5052676;28;20040;-77
2022/03/22 02:47:58;;;;;;;2.58;1.42;;;33.50;85.80;;;;;;5054974;28;20360;-75
2022/03/22 02:50:25;;;;;;;1.98;1.35;;;33.80;85.80;;;;;;5055607;28;20383;-75
2022/03/22 02:52:53;;;;;;;3.47;2.00;;;33.90;86.60;;;;;;5053533;28;21099;-77
2022/03/22 02:55:21;;;;;;;3.22;1.55;;;34.20;86.30;;;;;;5053660;28;20036;-76
2022/03/22 02:57:48;;;;;;;2.67;1.55;;;34.30;84.90;;;;;;5055136;28;20034;-74
2022/03/22 03:00:17;;;;;;;3.08;1.73;;;34.40;84.20;;;;;;5052492;28;20032;-74
2022/03/22 03:02:49;;;;;;;1.75;1.38;;;34.70;85.80;;;;;;5055375;28;20025;-72
2022/03/22 03:05:18;;;;;;;4.63;1.52;;;34.70;82.50;;;;;;5069474;28;20029;-74
2022/03/22 03:07:46;;;;;;;3.15;1.55;;;34.50;84.90;;;;;;5060848;28;20047;-72
2022/03/22 03:10:14;;;;;;;3.50;1.63;;;34.50;86.10;;;;;;5060679;28;20436;-74
2022/03/22 03:12:42;;;;;;;2.63;1.52;;;34.60;84.60;;;;;;5064246;28;20433;-73
2022/03/22 03:15:10;;;;;;;7.32;2.13;;;34.60;84.80;;;;;;5054300;28;20029;-73
2022/03/22 03:17:39;;;;;;;3.20;1.33;;;34.60;83.40;;;;;;5057026;28;20024;-75
2022/03/22 03:20:07;;;;;;;3.65;1.90;;;34.40;84.50;;;;;;5058928;28;20020;-75
2022/03/22 03:22:35;;;;;;;2.67;1.75;;;34.20;83.10;;;;;;5057108;28;20028;-74
2022/03/22 03:25:06;;;;;;;2.38;1.85;;;34.10;83.60;;;;;;5053912;28;20020;-76
2022/03/22 03:27:33;;;;;;;1.70;1.50;;;34.00;83.80;;;;;;5052394;28;20436;-73
2022/03/22 03:30:01;;;;;;;3.20;1.48;;;34.00;84.40;;;;;;5053267;28;20090;-75
2022/03/22 03:32:29;;;;;;;3.85;1.98;;;34.00;85.50;;;;;;5051546;28;20041;-76
2022/03/22 03:34:56;;;;;;;6.10;2.03;;;34.20;85.70;;;;;;5055034;28;20025;-73
2022/03/22 03:37:24;;;;;;;3.22;1.88;;;34.40;85.20;;;;;;5052627;28;20052;-75
2022/03/22 03:39:52;;;;;;;3.75;1.63;;;34.20;82.90;;;;;;5055741;28;20437;-74
2022/03/22 03:42:19;;;;;;;1.88;1.52;;;34.00;84.70;;;;;;5054612;28;20035;-74
2022/03/22 03:47:34;;;;;;;4.63;1.60;;;34.20;81.80;;;;;;5073564;28;20061;-72
2022/03/22 03:50:05;;;;;;;1.70;1.40;;;34.30;83.20;;;;;;5102662;28;20075;-73
2022/03/22 03:52:35;;;;;;;2.67;1.50;;;34.30;82.70;;;;;;5069627;28;20056;-75
2022/03/22 03:55:05;;;;;;;3.13;1.50;;;34.20;82.60;;;;;;5059042;28;20024;-74
2022/03/22 03:57:32;;;;;;;3.20;1.60;;;34.10;81.30;;;;;;5057181;28;21126;-76
2022/03/22 04:00:00;;;;;;;2.65;1.58;;;34.10;80.30;;;;;;5072872;28;20032;-75
2022/03/22 04:02:27;;;;;;;2.72;1.58;;;34.00;81.20;;;;;;5067028;28;20033;-76
2022/03/22 04:04:55;;;;;;;2.65;1.27;;;34.20;81.20;;;;;;5054998;28;20099;-75
2022/03/22 04:07:25;;;;;;;2.30;1.33;;;34.30;81.30;;;;;;5052372;28;20041;-74
2022/03/22 04:09:56;;;;;;;3.13;1.73;;;34.20;78.50;;;;;;5061109;28;20028;-74
2022/03/22 04:12:23;;;;;;;2.95;1.95;;;33.90;79.40;;;;;;5063699;28;20024;-75
2022/03/22 04:14:53;;;;;;;3.00;2.17;;;34.00;80.20;;;;;;5070372;28;20055;-76
2022/03/22 04:17:21;;;;;;;3.25;1.83;;;34.10;78.70;;;;;;5069455;28;20032;-76
2022/03/22 04:19:49;;;;;;;4.50;1.77;;;34.00;79.50;;;;;;5071530;28;20107;-74
2022/03/22 04:22:16;;;;;;;3.70;1.75;;;34.00;80.20;;;;;;5058844;28;20031;-74
2022/03/22 04:24:43;;;;;;;3.25;1.70;;;33.80;80.40;;;;;;5065263;28;20107;-70
2022/03/22 04:32:44;;;;;;;2.40;1.50;;;34.40;81.50;;;;;;5063494;28;20280;-73
2022/03/22 04:35:19;;;;;;;4.70;2.08;;;34.50;79.80;;;;;;5052135;28;20063;-72
2022/03/22 04:37:49;;;;;;;3.53;1.75;;;34.30;79.90;;;;;;5038319;28;21459;-72
2022/03/22 04:40:17;;;;;;;2.50;2.15;;;34.10;80.90;;;;;;5052276;28;20028;-77
2022/03/22 04:42:44;;;;;;;4.95;1.48;;;33.90;80.30;;;;;;5050153;28;20507;-72
2022/03/22 04:45:12;;;;;;;2.80;1.65;;;33.90;79.90;;;;;;5052166;28;20082;-74
2022/03/22 04:47:44;;;;;;;2.30;1.58;;;33.80;80.90;;;;;;5059185;28;20045;-75
2022/03/22 04:50:12;;;;;;;2.33;1.65;;;33.60;81.10;;;;;;5047986;28;20054;-79
2022/03/22 04:58:11;;;;;;;4.18;1.83;;;33.60;82.20;;;;;;5066489;28;20440;-74
2022/03/22 05:00:40;;;;;;;3.67;1.60;;;33.90;81.00;;;;;;5080796;28;20032;-76
2022/03/22 05:03:10;;;;;;;2.70;1.52;;;34.00;79.50;;;;;;5060352;28;20364;-75
2022/03/22 05:08:22;;;;;;;;;;;33.80;79.80;;;;;;5057563;28;20040;-76
2022/03/22 05:10:49;;;;;;;3.75;1.48;;;33.60;80.10;;;;;;5051483;28;20325;-73
2022/03/22 05:13:17;;;;;;;4.63;1.50;;;33.60;80.40;;;;;;5068919;28;20560;-76
2022/03/22 05:15:44;;;;;;;2.10;1.40;;;33.50;79.60;;;;;;5062717;28;20494;-73
2022/03/22 05:18:11;;;;;;;2.65;1.60;;;33.40;80.10;;;;;;5051520;28;20025;-76
2022/03/22 05:20:39;;;;;;;5.63;1.88;;;33.30;80.10;;;;;;5058912;28;20036;-78
2022/03/22 05:23:06;;;;;;;2.78;1.70;;;33.20;80.00;;;;;;5052799;28;20108;-77
2022/03/22 05:25:33;;;;;;;3.10;1.63;;;33.20;79.50;;;;;;5061044;28;20064;-78
2022/03/22 05:28:02;;;;;;;2.55;1.98;;;33.20;80.10;;;;;;5060975;28;20041;-77
2022/03/22 05:30:31;;;;;;;3.30;1.83;;;33.20;80.40;;;;;;5059348;28;20040;-76
2022/03/22 05:32:58;;;;;;;1.95;1.50;;;33.20;81.20;;;;;;5055886;28;20289;-76
2022/03/22 05:35:26;;;;;;;2.38;1.67;;;33.30;80.70;;;;;;5050932;28;20033;-78
2022/03/22 05:37:53;;;;;;;2.55;1.48;;;33.30;79.50;;;;;;5065670;28;20098;-79
2022/03/22 05:40:20;;;;;;;4.35;1.65;;;33.30;79.40;;;;;;5064055;28;20111;-75
2022/03/22 05:42:49;;;;;;;3.83;1.70;;;33.30;79.80;;;;;;5068704;28;20090;-78
2022/03/22 05:45:16;;;;;;;3.35;1.90;;;33.10;78.60;;;;;;5067025;28;20119;-75
2022/03/22 05:47:44;;;;;;;2.60;1.40;;;33.00;79.40;;;;;;5063292;28;20024;-78
2022/03/22 05:50:12;;;;;;;3.90;2.20;;;32.90;79.20;;;;;;5055460;28;20033;-77
2022/03/22 05:52:45;;;;;;;2.47;1.60;;;32.80;79.20;;;;;;5065245;28;20455;-75
2022/03/22 05:55:12;;;;;;;1.98;1.38;;;32.70;80.80;;;;;;5072218;28;20035;-76
2022/03/22 05:57:40;;;;;;;3.88;1.98;;;32.70;81.70;;;;;;5071982;28;20040;-77
2022/03/22 06:00:09;;;;;;;2.10;1.90;;;32.70;81.20;;;;;;5060567;28;20029;-75
2022/03/22 06:02:43;;;;;;;4.78;2.22;;;32.60;80.20;;;;;;5064772;28;20110;-76
2022/03/22 06:05:11;;;;;;;2.90;1.85;;;32.30;80.20;;;;;;5056965;28;20170;-78
2022/03/22 06:07:40;;;;;;;3.55;1.75;;;32.20;81.30;;;;;;5062442;28;20033;-72
2022/03/22 06:10:09;;;;;;;2.95;2.10;;;32.10;80.90;;;;;;5073149;28;20028;-75
2022/03/22 06:12:41;;;;;;;4.63;1.58;;;32.10;81.00;;;;;;5059029;28;20049;-72
2022/03/22 06:15:20;;;;;;;2.63;1.88;;;32.10;80.90;;;;;;5055090;28;20360;-76
2022/03/22 06:17:52;;;;;;;4.60;1.55;;;32.20;80.90;;;;;;5065441;28;20056;-74
2022/03/22 06:20:23;;;;;;;5.28;1.88;;;32.10;80.60;;;;;;5067699;28;20025;-75
2022/03/22 06:22:51;;;;;;;3.45;1.88;;;32.10;80.80;;;;;;5056203;28;20024;-75
2022/03/22 06:25:19;;;;;;;2.05;1.52;;;32.10;80.20;;;;;;5064622;28;20374;-73
2022/03/22 06:27:49;;;;;;;3.75;1.77;;;32.10;80.30;;;;;;5047498;28;20050;-74
2022/03/22 06:30:18;;;;;;;2.88;1.42;;;32.00;80.70;;;;;;5053064;28;20040;-74
2022/03/22 06:32:54;;;;;;;2.35;1.75;;;32.00;80.40;;;;;;5069349;28;20031;-71
2022/03/22 06:35:27;;;;;;;4.28;2.25;;;31.90;80.30;;;;;;5072926;28;20036;-74
2022/03/22 06:37:55;;;;;;;3.38;1.50;;;31.90;80.80;;;;;;5054869;28;20041;-73
2022/03/22 06:40:27;;;;;;;2.75;1.60;;;32.00;80.40;;;;;;5059003;28;20502;-75
2022/03/22 06:42:59;;;;;;;2.78;1.88;;;32.10;80.80;;;;;;5063737;28;20049;-72
2022/03/22 06:45:26;;;;;;;2.85;2.00;;;32.30;82.20;;;;;;5064637;28;20051;-76
2022/03/22 06:47:54;;;;;;;3.67;2.40;;;32.20;80.30;;;;;;5070597;28;20502;-74
2022/03/22 06:50:22;;;;;;;4.18;2.28;;;32.10;80.40;;;;;;5063769;28;20391;-72
2022/03/22 06:52:49;;;;;;;2.40;1.70;;;32.00;80.40;;;;;;5061693;28;20107;-74
2022/03/22 06:55:22;;;;;;;3.05;1.70;;;31.90;81.20;;;;;;5062681;28;20495;-74
2022/03/22 06:57:53;;;;;;;3.33;1.67;;;31.80;81.00;;;;;;5067583;28;20032;-75
2022/03/22 07:00:21;;;;;;;2.60;1.48;;;31.70;81.10;;;;;;5063946;28;20170;-72
2022/03/22 07:02:49;;;;;;;3.50;2.05;;;31.60;80.90;;;;;;5061468;28;20090;-74
2022/03/22 07:05:17;;;;;;;4.00;1.50;;;31.40;81.10;;;;;;5067623;28;20024;-75
2022/03/22 07:07:45;;;;;;;3.75;2.13;;;31.30;82.00;;;;;;5066282;28;20056;-74
2022/03/22 07:10:15;;;;;;;5.63;1.55;;;31.20;82.50;;;;;;5067329;28;20035;-74
2022/03/22 07:12:56;;;;;;;3.05;1.40;;;31.00;82.00;;;;;;5058606;28;20043;-73
2022/03/22 07:15:27;;;;;;;3.53;2.25;;;30.80;81.50;;;;;;5055224;28;20033;-75
2022/03/22 07:17:55;;;;;;;2.42;2.00;;;30.70;82.00;;;;;;5055290;28;20017;-75
2022/03/22 07:20:23;;;;;;;2.65;1.75;;;30.60;82.60;;;;;;5053381;28;20108;-77
2022/03/22 07:22:50;;;;;;;3.33;2.40;;;30.50;83.00;;;;;;5052882;28;20036;-76
2022/03/22 07:25:19;;;;;;;3.08;2.38;;;30.50;83.10;;;;;;5052339;28;20036;-77
2022/03/22 07:27:46;;;;;;;4.18;1.98;;;30.40;83.50;;;;;;5062155;28;20123;-73
2022/03/22 07:30:14;;;;;;;4.70;2.25;;;30.40;82.90;;;;;;5066723;28;20024;-75
2022/03/22 07:32:43;;;;;;;3.97;2.00;;;30.20;83.40;;;;;;5068552;28;20039;-73
2022/03/22 07:35:12;;;;;;;3.00;2.13;;;30.20;84.20;;;;;;5067857;28;20063;-75
2022/03/22 07:37:40;;;;;;;2.67;1.90;;;30.00;84.20;;;;;;5064067;28;20506;-72
2022/03/22 07:40:10;;;;;;;4.55;2.20;;;30.00;84.20;;;;;;5062137;28;20043;-74
2022/03/22 07:42:37;;;;;;;4.30;1.60;;;29.80;84.00;;;;;;5068780;28;20029;-74
2022/03/22 07:45:08;;;;;;;3.30;1.70;;;29.70;86.80;;;;;;5061546;28;20036;-72
2022/03/22 07:47:35;;;;;;;3.50;1.30;;;29.70;89.40;;;;;;5063704;28;20032;-73
2022/03/22 07:53:01;;;;;;;3.17;1.77;;;29.40;91.00;;;;;;5068080;28;20035;-73
2022/03/22 07:55:30;;;;;;;2.80;1.77;;;29.20;91.40;;;;;;5067394;28;20035;-74
2022/03/22 07:57:58;;;;;;;4.35;1.77;;;29.10;91.80;;;;;;5061986;28;20032;-74
2022/03/22 08:00:28;;;;;;;2.47;1.40;;;29.00;92.10;;;;;;5054143;28;20033;-72
2022/03/22 08:03:03;;;;;;;2.13;1.42;;;28.90;92.30;;;;;;5068569;28;20103;-72
2022/03/22 08:05:32;;;;;;;3.45;2.10;;;28.90;92.60;;;;;;5066985;28;21216;-75
2022/03/22 08:07:59;;;;;;;4.25;2.30;;;28.80;93.00;;;;;;5067845;28;20198;-75
2022/03/22 08:10:28;;;;;;;4.32;1.85;;;28.60;93.20;;;;;;5066657;28;20029;-73
2022/03/22 08:12:56;;;;;;;5.65;2.00;;;28.50;93.60;;;;;;5065025;28;20025;-71
2022/03/22 08:15:23;;;;;;;3.92;2.00;;;28.30;93.90;;;;;;5069671;28;20021;-72
2022/03/22 08:17:50;;;;;;;3.00;2.05;;;28.30;94.00;;;;;;5068963;28;20056;-72
2022/03/22 08:20:18;;;;;;;5.55;2.25;;;28.20;94.50;;;;;;5062951;28;20480;-72
2022/03/22 08:23:00;;;;;;;4.85;2.22;;;28.00;94.80;;;;;;5061791;28;20020;-72
2022/03/22 08:25:32;;;;;;;4.20;2.20;;;28.00;94.90;;;;;;5052860;28;20039;-72
2022/03/22 08:28:02;;;;;;;4.82;1.83;;;27.90;95.00;;;;;;5054216;28;20108;-75
2022/03/22 08:30:30;;;;;;;5.47;2.30;;;27.80;95.50;;;;;;5052116;28;20033;-77
2022/03/22 08:32:59;;;;;;;5.25;1.67;;;27.80;95.80;;;;;;5058582;28;20064;-76
2022/03/22 08:35:28;;;;;;;4.38;1.92;;;27.60;96.00;;;;;;5070729;28;20024;-76
2022/03/22 08:37:56;;;;;;;2.35;1.65;;;27.50;96.10;;;;;;5062048;28;20063;-75
2022/03/22 08:40:24;;;;;;;4.30;2.08;;;27.50;96.40;;;;;;5060339;28;20021;-74
2022/03/22 08:42:53;;;;;;;4.55;1.60;;;27.50;96.50;;;;;;5054601;28;20044;-74
2022/03/22 08:45:22;;;;;;;3.78;2.00;;;27.40;96.60;;;;;;5053431;28;20048;-74
2022/03/22 08:47:51;;;;;;;3.80;1.77;;;27.30;96.70;;;;;;5052059;28;20037;-72
2022/03/22 08:50:25;;;;;;;1.70;1.50;;;27.30;96.90;;;;;;5053768;28;20078;-75
2022/03/22 08:52:56;;;;;;;4.80;2.22;;;27.20;97.00;;;;;;5051045;28;20029;-73
2022/03/22 08:55:24;;;;;;;4.55;2.40;;;27.10;97.20;;;;;;5050674;28;20122;-76
2022/03/22 08:57:54;;;;;;;3.20;2.05;;;27.20;97.20;;;;;;5068389;28;20059;-76
2022/03/22 09:00:22;;;;;;;5.75;2.33;;;27.10;97.30;;;;;;5066144;28;20086;-75
2022/03/22 09:02:51;;;;;;;7.07;2.30;;;27.10;97.50;;;;;;5059580;28;20066;-73
2022/03/22 09:08:07;;;;;;;5.07;2.50;;;27.00;97.60;;;;;;5048239;28;20447;-74
2022/03/22 09:10:36;;;;;;;4.72;1.80;;;27.00;97.60;;;;;;5054053;28;20044;-73
2022/03/22 09:13:07;;;;;;;3.72;1.83;;;26.90;97.80;;;;;;5053472;28;20025;-77
2022/03/22 09:15:38;;;;;;;3.38;2.20;;;26.80;97.90;;;;;;5049969;28;20105;-74
2022/03/22 09:18:13;;;;;;;7.05;2.58;;;26.70;98.00;;;;;;5051971;28;20041;-72
2022/03/22 09:20:42;;;;;;;5.20;2.17;;;26.70;98.10;;;;;;5050409;28;20033;-72
2022/03/22 09:23:11;;;;;;;5.53;2.80;;;26.60;98.00;;;;;;5051197;28;20043;-72
2022/03/22 09:25:40;;;;;;;5.93;2.33;;;26.60;98.10;;;;;;5052217;28;20029;-74
2022/03/22 09:28:08;;;;;;;4.97;2.67;;;26.60;98.10;;;;;;5045985;28;20499;-71
2022/03/22 09:30:36;;;;;;;3.75;2.53;;;26.50;98.10;;;;;;5055870;28;20319;-72
2022/03/22 09:33:05;;;;;;;5.15;2.30;;;26.50;98.20;;;;;;5056655;28;20028;-71
2022/03/22 09:35:32;;;;;;;3.75;1.90;;;26.50;98.20;;;;;;5051797;28;20479;-73
2022/03/22 09:38:00;;;;;;;4.15;2.25;;;26.50;98.10;;;;;;5047041;28;20029;-72
2022/03/22 09:40:30;;;;;;;5.13;2.80;;;26.40;98.30;;;;;;5053223;28;20029;-75
2022/03/22 09:42:58;;;;;;;6.28;2.30;;;26.40;98.40;;;;;;5052662;28;20514;-75
2022/03/22 09:45:30;;;;;;;6.93;2.00;;;26.30;98.50;;;;;;5051128;28;20139;-76
2022/03/22 09:47:59;;;;;;;2.75;1.90;;;26.20;98.60;;;;;;5048593;28;20041;-73
2022/03/22 09:53:15;;;;;;;6.60;2.42;;;26.10;98.90;;;;;;5050503;28;20079;-76
2022/03/22 09:55:43;;;;;;;3.58;2.13;;;26.10;98.90;;;;;;5051771;28;20651;-74
2022/03/22 09:58:10;;;;;;;3.70;2.13;;;26.10;98.90;;;;;;5049827;28;20033;-77
2022/03/22 10:00:38;;;;;;;4.85;2.63;;;26.00;99.00;;;;;;5052141;28;20115;-73
2022/03/22 10:03:06;;;;;;;6.00;2.65;;;25.90;99.20;;;;;;5051630;28;20103;-74
2022/03/22 10:05:34;;;;;;;4.22;2.20;;;25.90;99.20;;;;;;5052627;28;20041;-72
2022/03/22 10:08:07;;;;;;;4.95;2.53;;;25.80;99.40;;;;;;5048236;28;20534;-74
2022/03/22 10:10:35;;;;;;;2.75;2.15;;;25.80;99.50;;;;;;5048816;28;20516;-72
2022/03/22 10:13:04;;;;;;;5.22;2.63;;;25.80;99.70;;;;;;5051377;28;20105;-73
2022/03/22 10:15:35;;;;;;;5.38;2.63;;;25.70;99.70;;;;;;5052598;28;20036;-71
2022/03/22 10:18:05;;;;;;;4.55;2.13;;;25.60;99.90;;;;;;5049218;28;20029;-73
2022/03/22 10:20:34;;;;;;;3.17;2.00;;;25.60;99.90;;;;;;5050558;28;20040;-71
2022/03/22 10:23:03;;;;;;;2.78;1.90;;;25.50;99.90;;;;;;5050687;28;20037;-72
2022/03/22 10:25:32;;;;;;;4.82;2.40;;;25.40;99.90;;;;;;5052939;28;20032;-71
2022/03/22 10:28:02;;;;;;;4.78;2.38;;;25.40;99.90;;;;;;5056879;28;20028;-72
2022/03/22 10:30:30;;;;;;;6.07;3.38;;;25.30;99.90;;;;;;5053027;28;20056;-72
2022/03/22 10:33:00;;;;;;;3.08;1.92;;;25.30;99.90;;;;;;5055627;28;20451;-70
2022/03/22 10:35:32;;;;;;;5.47;2.78;;;25.30;99.90;;;;;;5056261;28;20066;-72
2022/03/22 10:38:08;;;;;;;4.15;3.28;;;25.20;99.90;;;;;;5053764;28;20120;-71
2022/03/22 10:40:40;;;;;;;4.10;2.50;;;25.20;99.90;;;;;;5060450;28;20083;-72
2022/03/22 10:43:16;;;;;;;5.65;3.67;;;25.10;99.90;;;;;;5058542;28;20115;-76
2022/03/22 10:46:02;;;;;;;6.35;2.53;;;25.00;99.90;;;;;;5052859;28;20032;-71
2022/03/22 10:48:38;;;;;;;3.95;2.05;;;25.00;99.90;;;;;;5054247;28;20050;-71
2022/03/22 10:51:06;;;;;;;8.38;2.88;;;25.00;99.90;;;;;;5056452;28;20099;-72
2022/03/22 10:53:35;;;;;;;4.43;2.30;;;25.00;99.90;;;;;;5062693;28;20071;-73
2022/03/22 10:56:07;;;;;;;4.65;2.20;;;24.90;99.90;;;;;;5062224;28;20399;-74
2022/03/22 10:58:36;;;;;;;4.60;2.90;;;24.90;99.90;;;;;;5064281;28;20025;-75
2022/03/22 11:01:06;;;;;;;4.55;2.47;;;24.90;99.90;;;;;;5063215;28;20062;-75
2022/03/22 11:03:34;;;;;;;7.15;2.88;;;24.90;99.90;;;;;;5064070;28;20031;-77
2022/03/22 11:06:04;;;;;;;3.20;2.08;;;24.90;99.90;;;;;;5068948;28;20025;-72
2022/03/22 11:08:32;;;;;;;2.78;2.28;;;24.90;99.90;;;;;;5066189;28;20044;-73
2022/03/22 11:10:59;;;;;;;5.18;2.63;;;24.90;99.90;;;;;;5054177;28;20021;-75
2022/03/22 11:13:27;;;;;;;5.60;2.80;;;24.80;99.90;;;;;;5059444;28;20037;-75
2022/03/22 11:15:59;;;;;;;6.28;2.25;;;24.90;99.90;;;;;;5065539;28;20142;-75
2022/03/22 11:18:29;;;;;;;7.38;3.92;;;24.90;99.90;;;;;;5058106;28;20859;-75
2022/03/22 11:21:02;;;;;;;4.68;2.10;;;24.90;99.90;;;;;;5058558;28;20748;-73
2022/03/22 11:23:31;;;;;;;4.93;3.25;;;24.90;99.90;;;;;;5060268;28;20029;-74
2022/03/22 11:26:10;;;;;;;6.82;3.28;;;24.90;99.90;;;;;;5060776;28;20428;-73
2022/03/22 11:28:39;;;;;;;4.55;3.00;;;24.80;99.90;;;;;;5069538;28;20043;-73
2022/03/22 11:31:10;;;;;;;5.47;2.72;;;24.80;99.90;;;;;;5068475;28;20103;-72
2022/03/22 11:36:36;;;;;;;4.60;2.63;;;24.70;99.90;;;;;;5054175;28;20093;-73
2022/03/22 11:39:04;;;;;;;4.03;2.60;;;24.60;99.90;;;;;;5056120;28;20048;-73
2022/03/22 11:44:27;;;;;;;6.07;3.75;;;24.50;99.90;;;;;;5061284;28;20059;-72
2022/03/22 11:47:08;;;;;;;5.57;2.50;;;24.50;99.90;;;;;;5066285;28;20025;-73
2022/03/22 11:50:08;;;;;;;4.55;2.72;;;24.40;99.90;;;;;;5070522;28;20406;-72
2022/03/22 11:52:41;;;;;;;3.90;2.13;;;24.40;99.90;;;;;;5063848;28;20379;-73
2022/03/22 11:55:12;;;;;;;3.83;2.28;;;24.40;99.90;;;;;;5061922;28;20033;-71
2022/03/22 11:57:53;;;;;;;19.05;2.78;;;24.30;99.90;;;;;;5063252;28;20040;-72
2022/03/22 12:00:22;;;;;;;6.95;2.35;;;24.20;99.90;;;;;;5058260;28;20028;-73
2022/03/22 12:02:55;;;;;;;2.72;2.30;;;24.20;99.90;;;;;;5054409;28;20035;-73
2022/03/22 12:05:24;;;;;;;2.78;2.03;;;24.20;99.90;;;;;;5067355;28;20056;-73
2022/03/22 12:07:52;;;;;;;2.70;2.05;;;24.20;99.90;;;;;;5065446;28;20378;-73
2022/03/22 12:10:21;;;;;;;3.42;2.22;;;24.20;99.90;;;;;;5066794;28;20082;-73
2022/03/22 12:12:50;;;;;;;6.07;2.58;;;24.20;99.90;;;;;;5052206;28;20499;-73
2022/03/22 12:15:24;;;;;;;4.50;2.22;;;24.10;99.90;;;;;;5052214;28;20506;-73
2022/03/22 12:17:52;;;;;;;4.38;2.20;;;24.10;99.90;;;;;;5053048;28;20033;-74
2022/03/22 12:20:22;;;;;;;3.30;1.90;;;24.10;99.90;;;;;;5050039;28;20104;-71
2022/03/22 12:22:58;;;;;;;5.15;2.90;;;24.00;99.90;;;;;;5052507;28;20170;-71
2022/03/22 12:25:31;;;;;;;4.20;3.10;;;24.00;99.90;;;;;;5051493;28;20191;-72
2022/03/22 12:28:00;;;;;;;6.63;2.75;;;24.00;99.90;;;;;;5052069;28;21712;-72
2022/03/22 12:30:32;;;;;;;3.13;2.08;;;24.00;99.90;;;;;;5058433;28;20020;-73
2022/03/22 12:33:02;;;;;;;4.50;2.15;;;23.90;99.90;;;;;;5059975;28;20097;-72
2022/03/22 12:35:30;;;;;;;7.85;3.00;;;23.90;99.90;;;;;;5051090;28;20683;-73
2022/03/22 12:37:58;;;;;;;8.35;2.50;;;23.90;99.90;;;;;;5053904;28;20066;-72
2022/03/22 12:40:26;;;;;;;4.00;1.95;;;23.80;99.90;;;;;;5054961;28;20039;-73
2022/03/22 12:42:56;;;;;;;3.55;2.03;;;23.80;99.90;;;;;;5053855;28;20495;-73
2022/03/22 12:45:25;;;;;;;5.28;2.40;;;23.70;99.90;;;;;;5058507;28;20029;-73
2022/03/22 12:47:53;;;;;;;5.72;2.20;;;23.70;99.90;;;;;;5048670;28;20033;-72
2022/03/22 12:50:22;;;;;;;3.67;2.05;;;23.60;99.90;;;;;;5057240;28;20818;-72
2022/03/22 12:52:51;;;;;;;5.05;2.47;;;23.50;99.90;;;;;;5053406;28;20025;-72
2022/03/22 12:55:22;;;;;;;4.80;2.00;;;23.50;99.90;;;;;;5059334;28;20077;-73
2022/03/22 12:57:56;;;;;;;4.15;2.20;;;23.40;99.90;;;;;;5062873;28;20517;-72
2022/03/22 13:00:31;;;;;;;4.13;2.30;;;23.40;99.90;;;;;;5055336;28;20086;-72
2022/03/22 13:03:19;;;;;;;5.20;2.80;;;23.30;99.90;;;;;;5060242;28;20682;-74
2022/03/22 13:05:51;;;;;;;7.50;2.80;;;23.30;99.90;;;;;;5063483;28;20044;-71
2022/03/22 13:08:27;;;;;;;9.50;2.72;;;23.30;99.90;;;;;;5059476;28;20091;-72
2022/03/22 13:16:36;;;;;;;9.10;2.80;;;23.10;99.90;;;;;;5055921;28;20037;-73
2022/03/22 13:19:06;;;;;;;7.28;2.35;;;23.10;99.90;;;;;;5052836;28;20059;-72
2022/03/22 13:21:36;;;;;;;6.55;2.53;;;23.00;99.90;;;;;;5062404;28;20372;-72
2022/03/22 13:24:17;;;;;;;5.95;2.30;;;23.00;99.90;;;;;;5054982;28;20033;-73
2022/03/22 13:27:06;;;;;;;4.57;2.72;;;23.00;99.90;;;;;;5061162;28;20028;-73
2022/03/22 13:29:41;;;;;;;6.60;2.88;;;22.90;99.90;;;;;;5063374;28;20661;-73
2022/03/22 13:32:12;;;;;;;4.03;2.40;;;22.90;99.90;;;;;;5068925;28;20028;-73
2022/03/22 13:34:48;;;;;;;4.10;2.22;;;22.90;99.90;;;;;;5063134;28;22648;-72
2022/03/22 13:37:19;;;;;;;5.90;1.80;;;22.80;99.90;;;;;;5064907;28;20033;-73
2022/03/22 13:39:50;;;;;;;3.30;2.30;;;22.80;99.90;;;;;;5061457;28;20021;-74
2022/03/22 13:42:19;;;;;;;5.90;2.83;;;22.80;99.90;;;;;;5057785;28;20025;-73